Time;durP1;ratioP1;P1;durP2;ratioP2;P2;SDS_P1;SDS_P2;PMS_P1;PMS_P2;Temp;Humidity;BMP_temperature;BMP_pressure;BME280_temperature;BME280_humidity;BME280_pressure;Samples;Min_cycle;Max_cycle;Signal;HPM_P1;HPM_P2
2020/12/21 00:00:50;;;;;;;1.90;1.20;;;6.90;99.90;;;;;;10430260;28;21059;-53
2020/12/21 00:06:15;;;;;;;1.67;0.85;;;6.80;99.90;;;;;;10444733;28;20484;-53
2020/12/21 00:11:40;;;;;;;1.83;1.02;;;6.80;99.90;;;;;;10446211;28;20045;-52
2020/12/21 00:17:01;;;;;;;2.05;1.02;;;6.70;99.90;;;;;;10441197;28;20064;-53
2020/12/21 00:22:22;;;;;;;2.63;1.00;;;6.70;99.90;;;;;;10437437;28;20915;-52
2020/12/21 00:27:43;;;;;;;4.70;1.48;;;6.70;99.90;;;;;;10439991;28;20404;-53
2020/12/21 00:33:04;;;;;;;2.78;1.10;;;6.60;99.90;;;;;;10437170;28;20082;-53
2020/12/21 00:38:25;;;;;;;6.28;1.60;;;6.50;99.90;;;;;;10442014;28;20041;-52
2020/12/21 00:43:49;;;;;;;2.42;1.00;;;6.50;99.90;;;;;;10442882;28;20377;-52
2020/12/21 00:49:10;;;;;;;7.07;1.67;;;6.40;99.90;;;;;;10427020;28;20036;-52
2020/12/21 00:54:31;;;;;;;9.90;1.67;;;6.50;99.90;;;;;;10440101;28;20465;-52
2020/12/21 00:59:52;;;;;;;3.78;1.60;;;6.50;99.90;;;;;;10448319;28;20072;-52
2020/12/21 01:05:13;;;;;;;2.55;1.17;;;6.50;99.90;;;;;;10441728;28;20041;-52
2020/12/21 01:10:34;;;;;;;6.38;1.25;;;6.50;99.90;;;;;;10444817;28;20048;-53
2020/12/21 01:15:55;;;;;;;3.28;1.17;;;6.50;99.90;;;;;;10442537;28;20083;-52
2020/12/21 01:21:24;;;;;;;2.33;1.13;;;6.50;99.90;;;;;;10439564;28;20226;-52
2020/12/21 01:26:45;;;;;;;3.05;1.08;;;6.50;99.90;;;;;;10442574;28;20061;-52
2020/12/21 01:32:06;;;;;;;7.10;2.22;;;6.50;99.90;;;;;;10452660;28;20049;-52
2020/12/21 01:37:27;;;;;;;3.75;1.05;;;6.50;99.90;;;;;;10451748;28;21260;-52
2020/12/21 01:42:48;;;;;;;4.13;0.98;;;6.40;99.90;;;;;;10436883;28;20133;-53
2020/12/21 01:48:09;;;;;;;6.32;1.15;;;6.40;99.90;;;;;;10449250;28;20533;-52
2020/12/21 01:53:30;;;;;;;9.25;1.08;;;6.40;99.90;;;;;;10450308;28;20044;-53
2020/12/21 01:58:51;;;;;;;4.20;1.50;;;6.50;99.90;;;;;;10447293;28;20112;-53
2020/12/21 02:04:12;;;;;;;4.68;1.38;;;6.40;99.90;;;;;;10451500;28;20044;-53
2020/12/21 02:09:34;;;;;;;4.70;1.17;;;6.40;99.90;;;;;;10448208;28;20037;-53
2020/12/21 02:14:55;;;;;;;3.30;1.17;;;6.30;99.90;;;;;;10451758;28;20087;-52
2020/12/21 02:20:16;;;;;;;6.50;2.42;;;6.30;99.90;;;;;;10439773;28;20032;-53
2020/12/21 02:25:37;;;;;;;2.15;1.00;;;6.30;99.90;;;;;;10448018;28;20044;-52
2020/12/21 02:30:58;;;;;;;3.80;0.77;;;6.30;99.90;;;;;;10447955;28;20520;-52
2020/12/21 02:36:19;;;;;;;2.72;0.68;;;6.30;99.90;;;;;;10446035;28;20056;-52
2020/12/21 02:41:40;;;;;;;4.55;2.45;;;6.40;99.90;;;;;;10446097;28;20037;-53
2020/12/21 02:47:01;;;;;;;1.42;0.70;;;6.30;99.90;;;;;;10445715;28;20080;-53
2020/12/21 02:52:23;;;;;;;3.47;1.00;;;6.20;99.90;;;;;;10445168;28;20548;-52
2020/12/21 02:57:44;;;;;;;1.77;1.00;;;6.20;99.90;;;;;;10447886;28;20573;-52
2020/12/21 03:03:05;;;;;;;1.92;0.98;;;6.20;99.90;;;;;;10445222;28;20146;-52
2020/12/21 03:08:26;;;;;;;1.70;0.88;;;6.10;99.90;;;;;;10448717;28;20041;-52
2020/12/21 03:13:47;;;;;;;4.28;1.30;;;6.20;99.90;;;;;;10450651;28;20507;-52
2020/12/21 03:19:08;;;;;;;5.38;1.27;;;6.20;99.90;;;;;;10442088;28;20099;-53
2020/12/21 03:24:29;;;;;;;4.00;1.23;;;6.10;99.90;;;;;;10438230;28;20086;-53
2020/12/21 03:29:50;;;;;;;2.85;0.85;;;6.10;99.90;;;;;;10447245;28;21077;-52
2020/12/21 03:35:11;;;;;;;6.10;1.17;;;6.00;99.90;;;;;;10441981;28;20118;-53
2020/12/21 03:40:32;;;;;;;4.88;1.42;;;6.00;99.90;;;;;;10417175;28;20051;-53
2020/12/21 03:45:55;;;;;;;2.63;0.70;;;5.90;99.90;;;;;;10445614;28;20036;-52
2020/12/21 03:51:16;;;;;;;7.82;2.30;;;5.90;99.90;;;;;;10429060;28;20049;-52
2020/12/21 03:56:40;;;;;;;2.70;1.05;;;5.90;99.90;;;;;;10426495;28;20051;-52
2020/12/21 04:02:02;;;;;;;3.22;1.17;;;5.90;99.90;;;;;;10440926;28;20137;-52
2020/12/21 04:07:23;;;;;;;6.20;2.08;;;5.80;99.90;;;;;;10447111;28;20045;-50
2020/12/21 04:12:46;;;;;;;3.25;0.88;;;5.90;99.90;;;;;;10440898;28;20033;-50
2020/12/21 04:18:07;;;;;;;9.15;1.17;;;5.80;99.90;;;;;;10440637;28;20085;-50
2020/12/21 04:23:28;;;;;;;3.47;1.15;;;5.80;99.90;;;;;;10444677;28;20689;-52
2020/12/21 04:28:49;;;;;;;4.40;1.45;;;5.80;99.90;;;;;;10439371;28;20044;-52
2020/12/21 04:34:10;;;;;;;5.80;1.02;;;5.70;99.90;;;;;;10438354;28;20040;-52
2020/12/21 04:39:31;;;;;;;6.75;1.48;;;5.70;99.90;;;;;;10440692;28;20025;-53
2020/12/21 04:44:53;;;;;;;2.67;1.15;;;5.70;99.90;;;;;;10444031;28;20067;-52
2020/12/21 04:50:17;;;;;;;3.95;1.73;;;5.70;99.90;;;;;;10442267;28;20558;-50
2020/12/21 04:55:38;;;;;;;2.30;1.10;;;5.70;99.90;;;;;;10437948;28;20123;-50
2020/12/21 05:00:59;;;;;;;4.95;1.15;;;5.70;99.90;;;;;;10447804;28;20048;-50
2020/12/21 05:06:20;;;;;;;3.17;1.17;;;5.80;99.90;;;;;;10444620;28;20037;-53
2020/12/21 05:11:56;;;;;;;1.60;1.02;;;5.70;99.90;;;;;;10446998;28;20163;-53
2020/12/21 05:17:17;;;;;;;3.58;2.15;;;5.70;99.90;;;;;;10444239;28;20055;-52
2020/12/21 05:22:38;;;;;;;5.15;1.73;;;5.80;99.90;;;;;;10450476;28;20079;-53
2020/12/21 05:28:12;;;;;;;5.20;1.80;;;5.80;99.90;;;;;;10448178;28;20028;-53
2020/12/21 05:33:38;;;;;;;4.35;1.27;;;5.70;99.90;;;;;;10449132;28;20140;-52
2020/12/21 05:39:02;;;;;;;2.85;0.73;;;5.80;99.90;;;;;;10453751;28;20148;-52
2020/12/21 05:44:23;;;;;;;4.65;2.38;;;5.80;99.90;;;;;;10450127;28;20087;-50
2020/12/21 05:49:52;;;;;;;1.63;0.85;;;5.90;99.90;;;;;;10439686;28;20040;-53
2020/12/21 05:55:13;;;;;;;6.07;1.13;;;5.90;99.90;;;;;;10448907;28;20484;-53
2020/12/21 06:00:34;;;;;;;9.68;1.83;;;6.00;99.90;;;;;;10450259;28;20074;-53
2020/12/21 06:06:04;;;;;;;3.65;0.95;;;6.00;99.90;;;;;;10449566;28;20761;-53
2020/12/21 06:11:25;;;;;;;6.53;1.23;;;6.10;99.90;;;;;;10452472;28;20083;-53
2020/12/21 06:16:47;;;;;;;12.57;3.97;;;6.10;99.90;;;;;;10448208;28;20684;-53
2020/12/21 06:22:08;;;;;;;3.40;0.77;;;6.20;99.90;;;;;;10445054;28;20033;-52
2020/12/21 06:27:42;;;;;;;1.90;0.85;;;6.20;99.90;;;;;;10450454;28;20041;-52
2020/12/21 06:33:04;;;;;;;4.05;1.40;;;6.30;99.90;;;;;;10444595;28;20622;-50
2020/12/21 06:38:24;;;;;;;3.13;1.15;;;6.30;99.90;;;;;;10447629;28;20088;-50
2020/12/21 06:44:01;;;;;;;21.58;1.42;;;6.30;99.90;;;;;;10452927;28;20479;-52
2020/12/21 06:49:22;;;;;;;6.97;1.02;;;6.50;99.90;;;;;;10443132;28;20037;-52
2020/12/21 06:54:44;;;;;;;2.58;1.02;;;6.50;99.90;;;;;;10446170;28;20033;-53
2020/12/21 07:00:05;;;;;;;6.70;2.92;;;6.40;99.90;;;;;;10446357;28;20499;-52
2020/12/21 07:05:26;;;;;;;9.63;2.03;;;6.50;99.90;;;;;;10444753;28;20511;-52
2020/12/21 07:10:56;;;;;;;1.65;0.65;;;6.50;99.90;;;;;;10450195;28;20476;-53
2020/12/21 07:16:18;;;;;;;2.58;1.38;;;6.50;99.90;;;;;;10448977;28;20084;-52
2020/12/21 07:21:40;;;;;;;4.47;1.15;;;6.50;99.90;;;;;;10451859;28;20039;-52
2020/12/21 07:27:01;;;;;;;3.08;1.05;;;6.50;99.90;;;;;;10446145;28;20056;-52
2020/12/21 07:32:28;;;;;;;9.73;1.10;;;6.50;99.90;;;;;;10433687;28;20045;-50
2020/12/21 07:37:49;;;;;;;16.42;1.88;;;6.50;99.90;;;;;;10396825;28;20126;-53
2020/12/21 07:43:25;;;;;;;2.10;0.73;;;6.50;99.90;;;;;;10405210;28;20034;-53
2020/12/21 07:48:47;;;;;;;6.75;0.70;;;6.60;99.90;;;;;;10404201;28;20039;-52
2020/12/21 07:54:11;;;;;;;2.80;0.90;;;6.60;99.90;;;;;;10399257;28;20033;-52
2020/12/21 07:59:32;;;;;;;3.13;1.77;;;6.70;99.90;;;;;;10396236;28;20040;-52
2020/12/21 08:04:54;;;;;;;1.55;0.75;;;6.80;99.90;;;;;;10385885;28;20090;-52
2020/12/21 08:10:18;;;;;;;1.52;0.88;;;6.80;99.90;;;;;;10395180;28;20082;-52
2020/12/21 08:15:39;;;;;;;6.65;1.33;;;6.90;99.90;;;;;;10397635;28;20136;-52
2020/12/21 08:21:00;;;;;;;5.22;1.33;;;6.90;99.90;;;;;;10397227;28;20095;-52
2020/12/21 08:26:22;;;;;;;4.43;2.22;;;7.10;99.90;;;;;;10393851;28;20822;-52
2020/12/21 08:31:44;;;;;;;6.15;2.67;;;7.10;99.90;;;;;;10399847;28;20128;-52
2020/12/21 08:37:05;;;;;;;3.65;1.15;;;7.10;99.90;;;;;;10437831;28;20059;-52
2020/12/21 08:42:26;;;;;;;2.22;0.98;;;7.10;99.90;;;;;;10438320;28;20051;-52
2020/12/21 08:47:47;;;;;;;5.10;1.40;;;7.20;99.90;;;;;;10424533;28;20041;-52
2020/12/21 08:53:08;;;;;;;4.85;2.03;;;7.20;99.90;;;;;;10437847;28;20071;-52
2020/12/21 08:58:29;;;;;;;6.22;2.33;;;7.30;99.90;;;;;;10440424;28;20070;-52
2020/12/21 09:03:50;;;;;;;5.30;1.60;;;7.40;99.90;;;;;;10442691;28;20534;-53
2020/12/21 09:09:11;;;;;;;2.92;1.30;;;7.50;99.90;;;;;;10438496;28;20044;-52
2020/12/21 09:14:33;;;;;;;7.03;1.75;;;7.60;99.90;;;;;;10415759;28;20158;-52
2020/12/21 09:19:54;;;;;;;5.57;2.65;;;7.60;99.90;;;;;;10438584;28;20059;-52
2020/12/21 09:25:16;;;;;;;3.58;1.50;;;7.50;99.90;;;;;;10440022;28;21736;-52
2020/12/21 09:30:37;;;;;;;7.28;1.80;;;7.50;99.90;;;;;;10436808;28;20124;-52
2020/12/21 09:35:58;;;;;;;4.55;1.77;;;7.60;99.90;;;;;;10426251;28;20045;-52
2020/12/21 09:41:20;;;;;;;3.45;1.35;;;7.60;99.90;;;;;;10435737;28;20045;-53
2020/12/21 09:46:41;;;;;;;4.50;1.42;;;7.60;99.90;;;;;;10435100;28;20087;-53
2020/12/21 09:52:02;;;;;;;3.80;1.48;;;7.70;99.90;;;;;;10436683;28;20050;-53
2020/12/21 09:57:23;;;;;;;5.15;2.03;;;7.70;99.90;;;;;;10445360;28;20546;-53
2020/12/21 10:02:44;;;;;;;5.70;1.35;;;7.70;99.90;;;;;;10445159;28;20036;-53
2020/12/21 10:08:05;;;;;;;6.45;1.55;;;7.80;99.90;;;;;;10444739;28;20044;-53
2020/12/21 10:13:26;;;;;;;2.28;1.45;;;7.80;99.90;;;;;;10435578;28;20065;-53
2020/12/21 10:18:47;;;;;;;5.05;1.27;;;7.80;99.90;;;;;;10443163;28;20101;-53
2020/12/21 10:24:08;;;;;;;4.10;1.50;;;7.90;99.90;;;;;;10438194;28;20497;-54
2020/12/21 10:29:29;;;;;;;3.20;1.00;;;7.90;99.90;;;;;;10444997;28;20114;-54
2020/12/21 10:34:50;;;;;;;2.40;0.82;;;7.90;99.90;;;;;;10443063;28;20055;-54
2020/12/21 10:40:11;;;;;;;6.85;1.30;;;7.90;99.90;;;;;;10441466;28;20048;-55
2020/12/21 10:45:32;;;;;;;1.77;1.23;;;7.90;99.90;;;;;;10442375;28;20029;-55
2020/12/21 10:50:54;;;;;;;4.03;1.08;;;8.00;99.90;;;;;;10446999;28;20175;-55
2020/12/21 10:56:15;;;;;;;3.38;1.35;;;8.00;99.90;;;;;;10433967;28;20084;-55
2020/12/21 11:01:36;;;;;;;1.98;0.50;;;7.90;99.90;;;;;;10439233;28;20044;-55
2020/12/21 11:06:57;;;;;;;2.33;0.60;;;7.90;99.90;;;;;;10440744;28;20051;-54
2020/12/21 11:12:22;;;;;;;2.65;0.85;;;8.00;99.90;;;;;;10441230;28;20044;-54
2020/12/21 11:17:44;;;;;;;2.60;0.82;;;8.00;99.90;;;;;;10439485;28;20124;-54
2020/12/21 11:23:06;;;;;;;1.58;0.55;;;8.00;99.90;;;;;;10440893;28;20064;-54
2020/12/21 11:28:27;;;;;;;3.55;0.80;;;8.00;99.90;;;;;;10442367;28;20570;-55
2020/12/21 11:33:48;;;;;;;3.38;1.35;;;8.00;99.90;;;;;;10441213;28;20485;-54
2020/12/21 11:39:09;;;;;;;3.35;1.48;;;8.00;99.90;;;;;;10436610;28;20040;-54
2020/12/21 11:44:29;;;;;;;4.22;1.00;;;8.10;99.90;;;;;;10440247;28;20059;-55
2020/12/21 11:49:50;;;;;;;1.73;0.80;;;8.10;99.90;;;;;;10439934;28;20135;-54
2020/12/21 11:55:11;;;;;;;3.22;0.75;;;8.10;99.90;;;;;;10436954;28;20033;-55
2020/12/21 12:00:32;;;;;;;1.48;0.63;;;8.10;99.90;;;;;;10436934;28;20033;-55
2020/12/21 12:05:53;;;;;;;4.15;0.93;;;8.10;99.90;;;;;;10439000;28;20487;-55
2020/12/21 12:11:21;;;;;;;2.97;1.15;;;8.10;99.90;;;;;;10442661;28;20099;-55
2020/12/21 12:16:42;;;;;;;2.92;0.77;;;8.10;99.90;;;;;;10438412;28;20130;-54
2020/12/21 12:22:03;;;;;;;2.00;0.95;;;8.20;99.90;;;;;;10439108;28;20043;-54
2020/12/21 12:27:25;;;;;;;2.13;0.60;;;8.20;99.90;;;;;;10434690;28;20068;-55
2020/12/21 12:32:47;;;;;;;6.00;0.57;;;8.20;99.90;;;;;;10438276;28;20654;-54
2020/12/21 12:38:08;;;;;;;2.22;0.82;;;8.20;99.90;;;;;;10397910;28;20073;-55
2020/12/21 12:43:29;;;;;;;1.42;0.50;;;8.20;99.90;;;;;;10404251;28;20045;-54
2020/12/21 12:48:50;;;;;;;1.58;0.70;;;8.30;99.90;;;;;;10397155;28;20045;-54
2020/12/21 12:54:11;;;;;;;4.90;0.77;;;8.30;99.90;;;;;;10402024;28;20029;-54
2020/12/21 12:59:32;;;;;;;2.60;0.40;;;8.40;99.90;;;;;;10402329;28;20216;-54
2020/12/21 13:04:53;;;;;;;2.05;0.95;;;8.30;99.90;;;;;;10399581;28;20036;-54
2020/12/21 13:10:14;;;;;;;2.53;0.73;;;8.30;99.90;;;;;;10397728;28;20041;-55
2020/12/21 13:15:35;;;;;;;1.73;0.80;;;8.30;99.90;;;;;;10399311;28;20057;-55
2020/12/21 13:20:56;;;;;;;6.45;0.88;;;8.30;99.90;;;;;;10396764;28;20067;-55
2020/12/21 13:26:17;;;;;;;4.53;1.48;;;8.30;99.90;;;;;;10400174;28;20049;-55
2020/12/21 13:31:38;;;;;;;5.15;0.80;;;8.30;99.90;;;;;;10407490;28;20659;-55
2020/12/21 13:36:59;;;;;;;4.43;0.63;;;8.20;99.90;;;;;;10399169;28;980259;-54
2020/12/21 13:42:20;;;;;;;2.15;1.20;;;8.20;99.90;;;;;;10450488;28;20033;-54
2020/12/21 13:47:41;;;;;;;2.33;0.60;;;8.20;99.90;;;;;;10440105;28;20445;-55
2020/12/21 13:53:02;;;;;;;3.10;1.38;;;8.20;99.90;;;;;;10443071;28;20033;-54
2020/12/21 13:58:23;;;;;;;2.58;1.17;;;8.20;99.90;;;;;;10442973;28;20135;-55
2020/12/21 14:03:44;;;;;;;1.13;0.43;;;8.20;99.90;;;;;;10445619;28;20055;-55
2020/12/21 14:09:05;;;;;;;2.53;0.68;;;8.20;99.90;;;;;;10439146;28;20046;-54
2020/12/21 14:14:26;;;;;;;1.48;1.00;;;8.20;99.90;;;;;;10439618;28;20507;-53
2020/12/21 14:19:47;;;;;;;1.17;0.40;;;8.20;99.90;;;;;;10443304;28;20079;-54
2020/12/21 14:25:08;;;;;;;1.52;1.00;;;8.20;99.90;;;;;;10439638;28;20133;-54
2020/12/21 14:30:29;;;;;;;1.45;0.93;;;8.20;99.90;;;;;;10443927;28;20037;-54
2020/12/21 14:35:50;;;;;;;0.70;0.28;;;8.20;99.90;;;;;;10441170;28;20048;-55
2020/12/21 14:41:11;;;;;;;0.95;0.57;;;8.10;99.90;;;;;;10438851;28;20044;-55
2020/12/21 14:46:32;;;;;;;2.42;0.40;;;8.10;99.90;;;;;;10439382;28;20044;-55
2020/12/21 14:51:53;;;;;;;1.63;0.38;;;8.10;99.90;;;;;;10440061;28;20041;-56
2020/12/21 14:57:14;;;;;;;1.27;0.47;;;8.10;99.90;;;;;;10435411;28;20645;-53
2020/12/21 15:02:35;;;;;;;1.00;0.40;;;8.20;99.90;;;;;;10446201;28;20033;-56
2020/12/21 15:07:56;;;;;;;1.25;0.50;;;8.20;99.90;;;;;;10439724;28;20037;-56
2020/12/21 15:13:17;;;;;;;1.40;0.70;;;8.20;99.90;;;;;;10437736;28;20140;-55
2020/12/21 15:18:39;;;;;;;1.30;0.45;;;8.20;99.90;;;;;;10443211;28;20052;-56
2020/12/21 15:24:00;;;;;;;1.42;0.57;;;8.10;99.90;;;;;;10438301;28;20060;-56
2020/12/21 15:29:21;;;;;;;1.35;0.60;;;8.10;99.90;;;;;;10437794;28;20033;-55
2020/12/21 15:34:45;;;;;;;2.05;0.57;;;8.10;99.90;;;;;;10438111;28;20057;-55
2020/12/21 15:40:06;;;;;;;1.05;0.28;;;8.10;99.90;;;;;;10438033;28;20049;-56
2020/12/21 15:45:27;;;;;;;2.55;0.43;;;8.10;99.90;;;;;;10442116;28;20093;-55
2020/12/21 15:50:48;;;;;;;1.65;0.47;;;8.10;99.90;;;;;;10440886;28;20132;-56
2020/12/21 15:56:10;;;;;;;1.60;0.73;;;8.10;99.90;;;;;;10445407;28;20036;-55
2020/12/21 16:01:30;;;;;;;1.88;0.80;;;8.20;99.90;;;;;;10439528;28;20033;-55
2020/12/21 16:06:51;;;;;;;1.88;0.63;;;8.20;99.90;;;;;;10426840;28;20080;-56
2020/12/21 16:12:14;;;;;;;2.17;0.77;;;8.20;99.90;;;;;;10439878;28;20164;-57
2020/12/21 16:17:35;;;;;;;1.50;0.80;;;8.20;99.90;;;;;;10439905;28;20044;-56
2020/12/21 16:22:56;;;;;;;3.13;1.20;;;8.30;99.90;;;;;;10440849;28;22244;-56
2020/12/21 16:28:17;;;;;;;3.30;1.15;;;8.30;99.90;;;;;;10433474;28;20132;-56
2020/12/21 16:33:38;;;;;;;2.97;1.33;;;8.30;99.90;;;;;;10439165;28;20037;-56
2020/12/21 16:38:59;;;;;;;3.35;1.25;;;8.30;99.90;;;;;;10438516;28;20049;-56
2020/12/21 16:44:20;;;;;;;2.33;0.77;;;8.30;99.90;;;;;;10436335;28;20028;-56
2020/12/21 16:49:41;;;;;;;2.88;0.80;;;8.30;99.90;;;;;;10436409;28;20040;-56
2020/12/21 16:55:03;;;;;;;2.85;0.82;;;8.40;99.90;;;;;;10437805;28;20102;-56
2020/12/21 17:00:24;;;;;;;3.17;0.95;;;8.40;99.90;;;;;;10437838;28;20931;-57
2020/12/21 17:05:44;;;;;;;1.48;0.77;;;8.40;99.90;;;;;;10439560;28;20044;-57
2020/12/21 17:11:05;;;;;;;2.38;0.88;;;8.40;99.90;;;;;;10444270;28;20041;-56
2020/12/21 17:16:26;;;;;;;2.13;1.23;;;8.40;99.90;;;;;;10437485;28;20562;-56
2020/12/21 17:21:48;;;;;;;2.30;1.23;;;8.50;99.90;;;;;;10437357;28;20134;-57
2020/12/21 17:27:09;;;;;;;2.10;1.20;;;8.50;99.90;;;;;;10441902;28;20029;-56
2020/12/21 17:32:30;;;;;;;5.75;1.65;;;8.50;99.90;;;;;;10443363;28;20036;-57
2020/12/21 17:37:52;;;;;;;3.92;1.48;;;8.60;99.90;;;;;;10436122;28;20049;-57
2020/12/21 17:43:13;;;;;;;3.28;1.05;;;8.60;99.90;;;;;;10441760;28;20029;-57
2020/12/21 17:48:34;;;;;;;5.10;2.03;;;8.60;99.90;;;;;;10434456;28;20408;-56
2020/12/21 17:53:55;;;;;;;3.25;1.33;;;8.70;99.90;;;;;;10441333;28;20037;-57
2020/12/21 17:59:16;;;;;;;3.00;1.45;;;8.70;99.90;;;;;;10437737;28;20507;-57
2020/12/21 18:04:37;;;;;;;3.25;1.33;;;8.70;99.90;;;;;;10436378;28;20033;-57
2020/12/21 18:09:58;;;;;;;3.88;1.80;;;8.80;99.90;;;;;;10433998;28;20496;-57
2020/12/21 18:15:19;;;;;;;5.75;1.98;;;8.80;99.90;;;;;;10447086;28;20119;-56
2020/12/21 18:20:40;;;;;;;4.53;1.38;;;8.90;99.90;;;;;;10441072;28;20045;-56
2020/12/21 18:26:01;;;;;;;5.57;2.35;;;9.00;99.90;;;;;;10451289;28;20044;-57
2020/12/21 18:31:22;;;;;;;3.20;1.30;;;9.00;99.90;;;;;;10445199;28;20670;-57
2020/12/21 18:36:43;;;;;;;4.75;2.28;;;9.00;99.90;;;;;;10438522;28;20056;-56
2020/12/21 18:42:04;;;;;;;4.85;1.98;;;9.10;99.90;;;;;;10445331;28;20037;-57
2020/12/21 18:47:29;;;;;;;5.53;2.28;;;9.20;99.90;;;;;;10440737;28;20377;-57
2020/12/21 18:52:50;;;;;;;7.13;2.85;;;9.30;99.90;;;;;;10441177;28;20439;-57
2020/12/21 18:58:11;;;;;;;5.43;2.53;;;9.40;99.90;;;;;;10438541;28;20124;-57
2020/12/21 19:03:32;;;;;;;6.22;2.40;;;9.40;99.90;;;;;;10433561;28;20055;-57
2020/12/21 19:08:53;;;;;;;7.57;3.33;;;9.50;99.90;;;;;;10435295;28;22397;-56
2020/12/21 19:14:14;;;;;;;9.48;3.97;;;9.60;99.90;;;;;;10420523;28;20063;-57
2020/12/21 19:19:35;;;;;;;7.47;3.70;;;9.70;99.90;;;;;;10432507;28;20039;-57
2020/12/21 19:24:56;;;;;;;13.27;3.83;;;9.70;99.90;;;;;;10437272;28;20056;-56
2020/12/21 19:30:17;;;;;;;9.00;4.22;;;9.70;99.90;;;;;;10437526;28;20060;-55
2020/12/21 19:35:38;;;;;;;9.27;4.03;;;9.80;99.90;;;;;;10441986;28;20046;-54
2020/12/21 19:40:59;;;;;;;10.20;3.38;;;9.80;99.90;;;;;;10433860;28;20068;-54
2020/12/21 19:46:28;;;;;;;11.82;4.78;;;9.90;99.90;;;;;;10434280;28;20127;-55
2020/12/21 19:51:50;;;;;;;14.70;4.83;;;9.90;99.90;;;;;;10431981;28;20143;-55
2020/12/21 19:57:11;;;;;;;11.38;4.00;;;10.00;99.90;;;;;;10434465;28;20559;-54
2020/12/21 20:02:32;;;;;;;12.30;4.95;;;10.10;99.90;;;;;;10433793;28;20056;-54
2020/12/21 20:07:53;;;;;;;7.57;3.20;;;10.10;99.90;;;;;;10434022;28;20895;-53
2020/12/21 20:13:15;;;;;;;9.18;3.38;;;10.20;99.90;;;;;;10442491;28;20060;-52
2020/12/21 20:18:36;;;;;;;8.23;3.40;;;10.30;99.90;;;;;;10436616;28;20511;-53
2020/12/21 20:23:56;;;;;;;7.85;2.72;;;10.30;99.90;;;;;;10436664;28;20124;-53
2020/12/21 20:29:18;;;;;;;9.43;3.58;;;10.30;99.90;;;;;;10436929;28;20029;-53
2020/12/21 20:34:38;;;;;;;10.00;3.80;;;10.50;99.90;;;;;;10437986;28;20061;-53
2020/12/21 20:39:59;;;;;;;6.97;2.92;;;10.50;99.90;;;;;;10426812;28;20060;-54
2020/12/21 20:45:21;;;;;;;7.03;2.35;;;10.60;99.90;;;;;;10431585;28;20040;-53
2020/12/21 20:50:42;;;;;;;10.25;3.10;;;10.70;99.90;;;;;;10434534;28;20651;-53
2020/12/21 20:56:03;;;;;;;8.68;3.70;;;10.70;99.90;;;;;;10438234;28;20045;-53
2020/12/21 21:01:24;;;;;;;9.68;3.47;;;10.70;99.90;;;;;;10442376;28;20094;-53
2020/12/21 21:06:45;;;;;;;7.60;3.22;;;10.70;99.90;;;;;;10439693;28;20166;-53
2020/12/21 21:12:06;;;;;;;9.63;3.47;;;10.80;99.90;;;;;;10439502;28;20037;-53
2020/12/21 21:17:27;;;;;;;9.40;3.38;;;10.80;99.90;;;;;;10442049;28;20045;-53
2020/12/21 21:22:48;;;;;;;7.07;3.35;;;10.80;99.90;;;;;;10441804;28;20342;-55
2020/12/21 21:28:09;;;;;;;10.65;3.58;;;10.80;99.90;;;;;;10440873;28;20374;-60
2020/12/21 21:33:30;;;;;;;6.55;2.50;;;10.90;99.90;;;;;;10438184;28;20021;-60
2020/12/21 21:38:51;;;;;;;14.23;2.80;;;11.10;99.90;;;;;;10427603;28;20472;-58
2020/12/21 21:44:12;;;;;;;5.05;1.98;;;11.40;99.90;;;;;;10435320;28;20075;-53
2020/12/21 21:49:33;;;;;;;4.95;2.28;;;11.60;99.90;;;;;;10440396;28;20179;-58
2020/12/21 21:54:54;;;;;;;5.82;2.38;;;11.80;99.90;;;;;;10446086;28;20040;-53
2020/12/21 22:00:16;;;;;;;3.65;1.70;;;11.90;99.90;;;;;;10447420;28;20029;-53
2020/12/21 22:05:37;;;;;;;4.82;1.40;;;11.90;99.90;;;;;;10451751;28;20055;-52
2020/12/21 22:10:58;;;;;;;5.30;1.77;;;12.00;99.90;;;;;;10443369;28;20087;-52
2020/12/21 22:16:19;;;;;;;4.00;1.38;;;12.10;99.90;;;;;;10434311;28;20051;-52
2020/12/21 22:21:40;;;;;;;3.50;0.93;;;12.10;99.90;;;;;;10448801;28;20048;-51
2020/12/21 22:27:01;;;;;;;3.63;1.52;;;12.20;99.90;;;;;;10434084;28;20140;-52
2020/12/21 22:32:22;;;;;;;3.13;1.50;;;12.30;99.90;;;;;;10444351;28;20025;-52
2020/12/21 22:37:43;;;;;;;3.63;1.17;;;12.40;99.90;;;;;;10444636;28;20060;-51
2020/12/21 22:43:04;;;;;;;3.38;1.23;;;12.50;99.90;;;;;;10444407;28;20049;-54
2020/12/21 22:48:25;;;;;;;2.25;1.13;;;12.40;99.90;;;;;;10438731;28;20956;-55
2020/12/21 22:53:46;;;;;;;3.40;1.10;;;12.50;99.90;;;;;;10444123;28;20119;-52
2020/12/21 22:59:07;;;;;;;2.92;1.30;;;12.50;99.90;;;;;;10445538;28;20047;-53
2020/12/21 23:04:28;;;;;;;4.45;1.38;;;12.60;99.90;;;;;;10422831;28;20680;-52
2020/12/21 23:09:49;;;;;;;1.25;0.52;;;12.50;99.90;;;;;;10440149;28;20055;-52
2020/12/21 23:15:10;;;;;;;1.80;0.35;;;12.50;99.90;;;;;;10443301;28;20052;-52
2020/12/21 23:20:31;;;;;;;2.03;0.52;;;12.50;99.90;;;;;;10441783;28;20107;-52
2020/12/21 23:25:52;;;;;;;1.40;0.52;;;12.50;99.90;;;;;;10440647;28;20033;-52
2020/12/21 23:31:13;;;;;;;2.97;0.60;;;12.60;99.90;;;;;;10447077;28;20033;-52
2020/12/21 23:36:34;;;;;;;1.95;1.08;;;12.60;99.90;;;;;;10445235;28;20064;-53
2020/12/21 23:41:55;;;;;;;2.10;0.82;;;12.60;99.90;;;;;;10443352;28;20076;-53
2020/12/21 23:47:16;;;;;;;2.83;0.73;;;12.60;99.90;;;;;;10441436;28;20024;-53
2020/12/21 23:52:37;;;;;;;1.77;0.68;;;12.70;99.90;;;;;;10445208;28;20094;-52
2020/12/21 23:57:58;;;;;;;1.73;0.80;;;12.70;99.90;;;;;;10444964;28;20037;-53
